sensor_id;sensor_type;location;lat;lon;timestamp;P1;durP1;ratioP1;P2;durP2;ratioP2
65393;SDS011;52002;49.760;6.512;2022-08-07T00:01:35;0.00;;;0.00;;
65393;SDS011;52002;49.760;6.512;2022-08-07T00:04:02;0.00;;;0.00;;
65393;SDS011;52002;49.760;6.512;2022-08-07T00:06:29;0.00;;;0.00;;
65393;SDS011;52002;49.760;6.512;2022-08-07T00:08:55;0.00;;;0.00;;
65393;SDS011;52002;49.760;6.512;2022-08-07T00:11:21;0.00;;;0.00;;
65393;SDS011;52002;49.760;6.512;2022-08-07T00:13:47;0.00;;;0.00;;
65393;SDS011;52002;49.760;6.512;2022-08-07T00:16:13;0.00;;;0.00;;
65393;SDS011;52002;49.760;6.512;2022-08-07T00:18:39;0.00;;;0.00;;
65393;SDS011;52002;49.760;6.512;2022-08-07T00:21:06;0.00;;;0.00;;
65393;SDS011;52002;49.760;6.512;2022-08-07T00:23:34;0.00;;;0.00;;
65393;SDS011;52002;49.760;6.512;2022-08-07T00:26:03;0.00;;;0.00;;
65393;SDS011;52002;49.760;6.512;2022-08-07T00:30:57;0.00;;;0.00;;
65393;SDS011;52002;49.760;6.512;2022-08-07T00:33:23;0.00;;;0.00;;
65393;SDS011;52002;49.760;6.512;2022-08-07T00:35:52;0.00;;;0.00;;
65393;SDS011;52002;49.760;6.512;2022-08-07T00:38:20;0.00;;;0.00;;
65393;SDS011;52002;49.760;6.512;2022-08-07T00:40:46;0.00;;;0.00;;
65393;SDS011;52002;49.760;6.512;2022-08-07T00:43:12;0.00;;;0.00;;
65393;SDS011;52002;49.760;6.512;2022-08-07T00:45:39;0.00;;;0.00;;
65393;SDS011;52002;49.760;6.512;2022-08-07T00:48:06;0.00;;;0.00;;
65393;SDS011;52002;49.760;6.512;2022-08-07T00:50:34;0.00;;;0.00;;
65393;SDS011;52002;49.760;6.512;2022-08-07T00:53:00;0.00;;;0.00;;
65393;SDS011;52002;49.760;6.512;2022-08-07T00:55:27;0.00;;;0.00;;
65393;SDS011;52002;49.760;6.512;2022-08-07T00:57:54;0.00;;;0.00;;
65393;SDS011;52002;49.760;6.512;2022-08-07T01:00:20;0.00;;;0.00;;
65393;SDS011;52002;49.760;6.512;2022-08-07T01:02:46;0.00;;;0.00;;
65393;SDS011;52002;49.760;6.512;2022-08-07T01:05:12;0.00;;;0.00;;
65393;SDS011;52002;49.760;6.512;2022-08-07T01:07:38;0.00;;;0.00;;
65393;SDS011;52002;49.760;6.512;2022-08-07T01:10:06;0.00;;;0.00;;
65393;SDS011;52002;49.760;6.512;2022-08-07T01:12:34;0.00;;;0.00;;
65393;SDS011;52002;49.760;6.512;2022-08-07T01:15:03;0.00;;;0.00;;
65393;SDS011;52002;49.760;6.512;2022-08-07T01:17:30;0.00;;;0.00;;
65393;SDS011;52002;49.760;6.512;2022-08-07T01:20:00;0.00;;;0.00;;
65393;SDS011;52002;49.760;6.512;2022-08-07T01:22:31;0.00;;;0.00;;
65393;SDS011;52002;49.760;6.512;2022-08-07T01:24:57;0.00;;;0.00;;
65393;SDS011;52002;49.760;6.512;2022-08-07T01:27:24;0.00;;;0.00;;
65393;SDS011;52002;49.760;6.512;2022-08-07T01:29:50;0.03;;;0.03;;
65393;SDS011;52002;49.760;6.512;2022-08-07T01:32:16;0.10;;;0.10;;
65393;SDS011;52002;49.760;6.512;2022-08-07T01:34:43;0.00;;;0.00;;
65393;SDS011;52002;49.760;6.512;2022-08-07T01:37:09;0.00;;;0.00;;
65393;SDS011;52002;49.760;6.512;2022-08-07T01:39:38;0.00;;;0.00;;
65393;SDS011;52002;49.760;6.512;2022-08-07T01:42:05;0.00;;;0.00;;
65393;SDS011;52002;49.760;6.512;2022-08-07T01:44:31;0.00;;;0.00;;
65393;SDS011;52002;49.760;6.512;2022-08-07T01:46:57;0.00;;;0.00;;
65393;SDS011;52002;49.760;6.512;2022-08-07T01:49:23;0.03;;;0.03;;
65393;SDS011;52002;49.760;6.512;2022-08-07T01:51:49;0.00;;;0.00;;
65393;SDS011;52002;49.760;6.512;2022-08-07T01:54:17;0.00;;;0.00;;
65393;SDS011;52002;49.760;6.512;2022-08-07T01:59:41;0.10;;;0.10;;
65393;SDS011;52002;49.760;6.512;2022-08-07T02:02:22;0.00;;;0.00;;
65393;SDS011;52002;49.760;6.512;2022-08-07T02:04:56;0.00;;;0.00;;
65393;SDS011;52002;49.760;6.512;2022-08-07T02:07:28;0.00;;;0.00;;
65393;SDS011;52002;49.760;6.512;2022-08-07T02:09:57;0.00;;;0.00;;
65393;SDS011;52002;49.760;6.512;2022-08-07T02:12:25;0.00;;;0.00;;
65393;SDS011;52002;49.760;6.512;2022-08-07T02:14:56;0.00;;;0.00;;
65393;SDS011;52002;49.760;6.512;2022-08-07T02:17:25;0.10;;;0.10;;
65393;SDS011;52002;49.760;6.512;2022-08-07T02:19:51;0.00;;;0.00;;
65393;SDS011;52002;49.760;6.512;2022-08-07T02:22:19;0.00;;;0.00;;
65393;SDS011;52002;49.760;6.512;2022-08-07T02:24:49;0.00;;;0.00;;
65393;SDS011;52002;49.760;6.512;2022-08-07T02:29:45;0.00;;;0.00;;
65393;SDS011;52002;49.760;6.512;2022-08-07T02:32:13;0.00;;;0.00;;
65393;SDS011;52002;49.760;6.512;2022-08-07T02:34:41;0.00;;;0.00;;
65393;SDS011;52002;49.760;6.512;2022-08-07T02:37:09;0.00;;;0.00;;
65393;SDS011;52002;49.760;6.512;2022-08-07T02:39:38;0.00;;;0.00;;
65393;SDS011;52002;49.760;6.512;2022-08-07T02:42:07;0.00;;;0.00;;
65393;SDS011;52002;49.760;6.512;2022-08-07T02:44:34;0.00;;;0.00;;
65393;SDS011;52002;49.760;6.512;2022-08-07T02:47:02;0.00;;;0.00;;
65393;SDS011;52002;49.760;6.512;2022-08-07T02:49:29;0.10;;;0.10;;
65393;SDS011;52002;49.760;6.512;2022-08-07T02:51:56;0.00;;;0.00;;
65393;SDS011;52002;49.760;6.512;2022-08-07T02:54:26;0.00;;;0.00;;
65393;SDS011;52002;49.760;6.512;2022-08-07T02:59:24;0.00;;;0.00;;
65393;SDS011;52002;49.760;6.512;2022-08-07T03:01:53;0.00;;;0.00;;
65393;SDS011;52002;49.760;6.512;2022-08-07T03:04:21;0.00;;;0.00;;
65393;SDS011;52002;49.760;6.512;2022-08-07T03:06:49;0.10;;;0.10;;
65393;SDS011;52002;49.760;6.512;2022-08-07T03:09:15;0.00;;;0.00;;
65393;SDS011;52002;49.760;6.512;2022-08-07T03:11:43;0.10;;;0.10;;
65393;SDS011;52002;49.760;6.512;2022-08-07T03:14:10;0.00;;;0.00;;
65393;SDS011;52002;49.760;6.512;2022-08-07T03:16:37;0.00;;;0.00;;
65393;SDS011;52002;49.760;6.512;2022-08-07T03:19:04;0.00;;;0.00;;
65393;SDS011;52002;49.760;6.512;2022-08-07T03:21:32;0.00;;;0.00;;
65393;SDS011;52002;49.760;6.512;2022-08-07T03:23:58;0.00;;;0.00;;
65393;SDS011;52002;49.760;6.512;2022-08-07T03:26:25;0.00;;;0.00;;
65393;SDS011;52002;49.760;6.512;2022-08-07T03:28:57;0.00;;;0.00;;
65393;SDS011;52002;49.760;6.512;2022-08-07T03:31:26;0.10;;;0.10;;
65393;SDS011;52002;49.760;6.512;2022-08-07T03:33:58;0.10;;;0.10;;
65393;SDS011;52002;49.760;6.512;2022-08-07T03:36:24;0.10;;;0.10;;
65393;SDS011;52002;49.760;6.512;2022-08-07T03:38:53;0.10;;;0.10;;
65393;SDS011;52002;49.760;6.512;2022-08-07T03:41:23;0.00;;;0.00;;
65393;SDS011;52002;49.760;6.512;2022-08-07T03:43:50;0.00;;;0.00;;
65393;SDS011;52002;49.760;6.512;2022-08-07T03:46:18;0.10;;;0.10;;
65393;SDS011;52002;49.760;6.512;2022-08-07T03:48:45;0.00;;;0.00;;
65393;SDS011;52002;49.760;6.512;2022-08-07T03:51:11;0.00;;;0.00;;
65393;SDS011;52002;49.760;6.512;2022-08-07T03:53:38;0.00;;;0.00;;
65393;SDS011;52002;49.760;6.512;2022-08-07T03:56:04;0.10;;;0.10;;
65393;SDS011;52002;49.760;6.512;2022-08-07T03:58:32;0.10;;;0.10;;
65393;SDS011;52002;49.760;6.512;2022-08-07T04:00:59;0.10;;;0.10;;
65393;SDS011;52002;49.760;6.512;2022-08-07T04:03:26;0.00;;;0.00;;
65393;SDS011;52002;49.760;6.512;2022-08-07T04:05:52;0.00;;;0.00;;
65393;SDS011;52002;49.760;6.512;2022-08-07T04:08:18;0.00;;;0.00;;
65393;SDS011;52002;49.760;6.512;2022-08-07T04:10:45;0.10;;;0.10;;
65393;SDS011;52002;49.760;6.512;2022-08-07T04:13:13;0.08;;;0.08;;
65393;SDS011;52002;49.760;6.512;2022-08-07T04:15:40;0.00;;;0.00;;
65393;SDS011;52002;49.760;6.512;2022-08-07T04:18:08;0.00;;;0.00;;
65393;SDS011;52002;49.760;6.512;2022-08-07T04:20:40;0.10;;;0.10;;
65393;SDS011;52002;49.760;6.512;2022-08-07T04:23:06;0.03;;;0.03;;
65393;SDS011;52002;49.760;6.512;2022-08-07T04:25:37;0.10;;;0.10;;
65393;SDS011;52002;49.760;6.512;2022-08-07T04:28:06;0.00;;;0.00;;
65393;SDS011;52002;49.760;6.512;2022-08-07T04:30:34;0.00;;;0.00;;
65393;SDS011;52002;49.760;6.512;2022-08-07T04:33:08;0.00;;;0.00;;
65393;SDS011;52002;49.760;6.512;2022-08-07T04:35:36;0.00;;;0.00;;
65393;SDS011;52002;49.760;6.512;2022-08-07T04:38:03;0.00;;;0.00;;
65393;SDS011;52002;49.760;6.512;2022-08-07T04:40:31;0.10;;;0.10;;
65393;SDS011;52002;49.760;6.512;2022-08-07T04:42:57;0.00;;;0.00;;
65393;SDS011;52002;49.760;6.512;2022-08-07T04:45:24;0.00;;;0.00;;
65393;SDS011;52002;49.760;6.512;2022-08-07T04:48:02;0.00;;;0.00;;
65393;SDS011;52002;49.760;6.512;2022-08-07T04:50:38;0.00;;;0.00;;
65393;SDS011;52002;49.760;6.512;2022-08-07T04:55:58;0.00;;;0.00;;
65393;SDS011;52002;49.760;6.512;2022-08-07T04:58:31;0.00;;;0.00;;
65393;SDS011;52002;49.760;6.512;2022-08-07T05:01:20;0.00;;;0.00;;
65393;SDS011;52002;49.760;6.512;2022-08-07T05:09:47;0.00;;;0.00;;
65393;SDS011;52002;49.760;6.512;2022-08-07T05:12:31;0.00;;;0.00;;
65393;SDS011;52002;49.760;6.512;2022-08-07T05:15:07;0.00;;;0.00;;
65393;SDS011;52002;49.760;6.512;2022-08-07T05:17:47;0.10;;;0.10;;
65393;SDS011;52002;49.760;6.512;2022-08-07T05:20:18;0.10;;;0.10;;
65393;SDS011;52002;49.760;6.512;2022-08-07T05:22:50;0.00;;;0.00;;
65393;SDS011;52002;49.760;6.512;2022-08-07T05:25:21;0.00;;;0.00;;
65393;SDS011;52002;49.760;6.512;2022-08-07T05:27:48;0.00;;;0.00;;
65393;SDS011;52002;49.760;6.512;2022-08-07T05:30:15;0.08;;;0.08;;
65393;SDS011;52002;49.760;6.512;2022-08-07T05:32:42;0.00;;;0.00;;
65393;SDS011;52002;49.760;6.512;2022-08-07T05:35:14;0.20;;;0.20;;
65393;SDS011;52002;49.760;6.512;2022-08-07T05:37:43;0.00;;;0.00;;
65393;SDS011;52002;49.760;6.512;2022-08-07T05:40:10;0.10;;;0.10;;
65393;SDS011;52002;49.760;6.512;2022-08-07T05:42:37;0.00;;;0.00;;
65393;SDS011;52002;49.760;6.512;2022-08-07T05:45:04;0.00;;;0.00;;
65393;SDS011;52002;49.760;6.512;2022-08-07T05:47:31;0.03;;;0.03;;
65393;SDS011;52002;49.760;6.512;2022-08-07T05:49:58;0.00;;;0.00;;
65393;SDS011;52002;49.760;6.512;2022-08-07T05:52:26;0.10;;;0.10;;
65393;SDS011;52002;49.760;6.512;2022-08-07T05:54:52;0.00;;;0.00;;
65393;SDS011;52002;49.760;6.512;2022-08-07T05:57:17;0.10;;;0.10;;
65393;SDS011;52002;49.760;6.512;2022-08-07T05:59:45;0.00;;;0.00;;
65393;SDS011;52002;49.760;6.512;2022-08-07T06:02:13;0.00;;;0.00;;
65393;SDS011;52002;49.760;6.512;2022-08-07T06:04:44;0.00;;;0.00;;
65393;SDS011;52002;49.760;6.512;2022-08-07T06:07:16;0.00;;;0.00;;
65393;SDS011;52002;49.760;6.512;2022-08-07T06:09:43;0.00;;;0.00;;
65393;SDS011;52002;49.760;6.512;2022-08-07T06:12:11;0.00;;;0.00;;
65393;SDS011;52002;49.760;6.512;2022-08-07T06:14:39;0.00;;;0.00;;
65393;SDS011;52002;49.760;6.512;2022-08-07T06:17:07;0.00;;;0.00;;
65393;SDS011;52002;49.760;6.512;2022-08-07T06:22:02;0.00;;;0.00;;
65393;SDS011;52002;49.760;6.512;2022-08-07T06:24:29;0.00;;;0.00;;
65393;SDS011;52002;49.760;6.512;2022-08-07T06:26:55;0.00;;;0.00;;
65393;SDS011;52002;49.760;6.512;2022-08-07T06:29:27;0.00;;;0.00;;
65393;SDS011;52002;49.760;6.512;2022-08-07T06:31:54;0.00;;;0.00;;
65393;SDS011;52002;49.760;6.512;2022-08-07T06:34:23;0.00;;;0.00;;
65393;SDS011;52002;49.760;6.512;2022-08-07T06:36:51;0.00;;;0.00;;
65393;SDS011;52002;49.760;6.512;2022-08-07T06:39:17;0.00;;;0.00;;
65393;SDS011;52002;49.760;6.512;2022-08-07T06:41:47;0.05;;;0.05;;
65393;SDS011;52002;49.760;6.512;2022-08-07T06:44:21;0.00;;;0.00;;
65393;SDS011;52002;49.760;6.512;2022-08-07T06:46:49;0.00;;;0.00;;
65393;SDS011;52002;49.760;6.512;2022-08-07T06:49:15;0.00;;;0.00;;
65393;SDS011;52002;49.760;6.512;2022-08-07T06:51:40;0.00;;;0.00;;
65393;SDS011;52002;49.760;6.512;2022-08-07T06:54:09;0.10;;;0.10;;
65393;SDS011;52002;49.760;6.512;2022-08-07T06:59:09;0.00;;;0.00;;
65393;SDS011;52002;49.760;6.512;2022-08-07T07:01:40;0.00;;;0.00;;
65393;SDS011;52002;49.760;6.512;2022-08-07T07:04:07;0.00;;;0.00;;
65393;SDS011;52002;49.760;6.512;2022-08-07T07:06:34;0.00;;;0.00;;
65393;SDS011;52002;49.760;6.512;2022-08-07T07:09:23;0.00;;;0.00;;
65393;SDS011;52002;49.760;6.512;2022-08-07T07:11:55;0.10;;;0.10;;
65393;SDS011;52002;49.760;6.512;2022-08-07T07:17:12;0.00;;;0.00;;
65393;SDS011;52002;49.760;6.512;2022-08-07T07:19:45;0.10;;;0.10;;
65393;SDS011;52002;49.760;6.512;2022-08-07T07:22:15;0.00;;;0.00;;
65393;SDS011;52002;49.760;6.512;2022-08-07T07:24:43;0.00;;;0.00;;
65393;SDS011;52002;49.760;6.512;2022-08-07T07:27:11;0.00;;;0.00;;
65393;SDS011;52002;49.760;6.512;2022-08-07T07:29:41;0.10;;;0.10;;
65393;SDS011;52002;49.760;6.512;2022-08-07T07:32:11;0.05;;;0.05;;
65393;SDS011;52002;49.760;6.512;2022-08-07T07:34:39;0.00;;;0.00;;
65393;SDS011;52002;49.760;6.512;2022-08-07T07:37:15;0.00;;;0.00;;
65393;SDS011;52002;49.760;6.512;2022-08-07T07:39:41;0.00;;;0.00;;
65393;SDS011;52002;49.760;6.512;2022-08-07T07:42:09;0.00;;;0.00;;
65393;SDS011;52002;49.760;6.512;2022-08-07T07:44:37;0.00;;;0.00;;
65393;SDS011;52002;49.760;6.512;2022-08-07T07:47:06;0.10;;;0.10;;
65393;SDS011;52002;49.760;6.512;2022-08-07T07:49:34;0.00;;;0.00;;
65393;SDS011;52002;49.760;6.512;2022-08-07T07:52:02;0.00;;;0.00;;
65393;SDS011;52002;49.760;6.512;2022-08-07T07:54:30;0.10;;;0.10;;
65393;SDS011;52002;49.760;6.512;2022-08-07T07:56:57;0.00;;;0.00;;
65393;SDS011;52002;49.760;6.512;2022-08-07T07:59:25;0.10;;;0.10;;
65393;SDS011;52002;49.760;6.512;2022-08-07T08:01:51;0.00;;;0.00;;
65393;SDS011;52002;49.760;6.512;2022-08-07T08:04:19;0.00;;;0.00;;
65393;SDS011;52002;49.760;6.512;2022-08-07T08:06:46;0.00;;;0.00;;
65393;SDS011;52002;49.760;6.512;2022-08-07T08:09:13;0.00;;;0.00;;
65393;SDS011;52002;49.760;6.512;2022-08-07T08:11:43;0.08;;;0.08;;
65393;SDS011;52002;49.760;6.512;2022-08-07T08:14:10;0.00;;;0.00;;
65393;SDS011;52002;49.760;6.512;2022-08-07T08:16:41;0.00;;;0.00;;
65393;SDS011;52002;49.760;6.512;2022-08-07T08:19:12;0.00;;;0.00;;
65393;SDS011;52002;49.760;6.512;2022-08-07T08:21:43;0.00;;;0.00;;
65393;SDS011;52002;49.760;6.512;2022-08-07T08:24:32;0.08;;;0.08;;
65393;SDS011;52002;49.760;6.512;2022-08-07T08:27:24;0.00;;;0.00;;
65393;SDS011;52002;49.760;6.512;2022-08-07T08:29:59;0.10;;;0.10;;
65393;SDS011;52002;49.760;6.512;2022-08-07T08:32:42;0.00;;;0.00;;
65393;SDS011;52002;49.760;6.512;2022-08-07T08:35:08;0.00;;;0.00;;
65393;SDS011;52002;49.760;6.512;2022-08-07T08:37:38;0.00;;;0.00;;
65393;SDS011;52002;49.760;6.512;2022-08-07T08:40:09;0.10;;;0.10;;
65393;SDS011;52002;49.760;6.512;2022-08-07T08:42:46;0.00;;;0.00;;
65393;SDS011;52002;49.760;6.512;2022-08-07T08:48:35;0.00;;;0.00;;
65393;SDS011;52002;49.760;6.512;2022-08-07T08:51:30;0.00;;;0.00;;
65393;SDS011;52002;49.760;6.512;2022-08-07T08:56:41;0.00;;;0.00;;
65393;SDS011;52002;49.760;6.512;2022-08-07T09:02:18;0.00;;;0.00;;
65393;SDS011;52002;49.760;6.512;2022-08-07T09:07:46;0.10;;;0.10;;
65393;SDS011;52002;49.760;6.512;2022-08-07T09:10:31;0.00;;;0.00;;
65393;SDS011;52002;49.760;6.512;2022-08-07T09:13:08;0.10;;;0.10;;
65393;SDS011;52002;49.760;6.512;2022-08-07T09:25:24;0.00;;;0.00;;
65393;SDS011;52002;49.760;6.512;2022-08-07T09:27:54;0.00;;;0.00;;
65393;SDS011;52002;49.760;6.512;2022-08-07T09:30:32;0.00;;;0.00;;
65393;SDS011;52002;49.760;6.512;2022-08-07T09:39:02;0.00;;;0.00;;
65393;SDS011;52002;49.760;6.512;2022-08-07T09:41:56;0.00;;;0.00;;
65393;SDS011;52002;49.760;6.512;2022-08-07T09:52:50;0.00;;;0.00;;
65393;SDS011;52002;49.760;6.512;2022-08-07T10:01:27;0.00;;;0.00;;
65393;SDS011;52002;49.760;6.512;2022-08-07T10:19:18;0.00;;;0.00;;
65393;SDS011;52002;49.760;6.512;2022-08-07T10:27:50;0.00;;;0.00;;
65393;SDS011;52002;49.760;6.512;2022-08-07T10:30:33;0.00;;;0.00;;
65393;SDS011;52002;49.760;6.512;2022-08-07T10:39:50;0.00;;;0.00;;
65393;SDS011;52002;49.760;6.512;2022-08-07T10:42:41;0.03;;;0.03;;
65393;SDS011;52002;49.760;6.512;2022-08-07T10:45:35;0.00;;;0.00;;
65393;SDS011;52002;49.760;6.512;2022-08-07T10:48:15;0.00;;;0.00;;
65393;SDS011;52002;49.760;6.512;2022-08-07T10:51:17;0.00;;;0.00;;
65393;SDS011;52002;49.760;6.512;2022-08-07T10:54:02;0.00;;;0.00;;
65393;SDS011;52002;49.760;6.512;2022-08-07T10:57:05;0.00;;;0.00;;
65393;SDS011;52002;49.760;6.512;2022-08-07T11:11:12;0.00;;;0.00;;
65393;SDS011;52002;49.760;6.512;2022-08-07T11:14:03;0.00;;;0.00;;
65393;SDS011;52002;49.760;6.512;2022-08-07T11:17:28;0.00;;;0.00;;
65393;SDS011;52002;49.760;6.512;2022-08-07T11:22:39;0.00;;;0.00;;
65393;SDS011;52002;49.760;6.512;2022-08-07T11:25:19;0.00;;;0.00;;
65393;SDS011;52002;49.760;6.512;2022-08-07T11:28:03;0.00;;;0.00;;
65393;SDS011;52002;49.760;6.512;2022-08-07T11:30:48;0.00;;;0.00;;
65393;SDS011;52002;49.760;6.512;2022-08-07T11:33:41;0.00;;;0.00;;
65393;SDS011;52002;49.760;6.512;2022-08-07T11:42:12;0.00;;;0.00;;
65393;SDS011;52002;49.760;6.512;2022-08-07T12:00:07;0.00;;;0.00;;
65393;SDS011;52002;49.760;6.512;2022-08-07T12:08:20;0.00;;;0.00;;
65393;SDS011;52002;49.760;6.512;2022-08-07T12:10:53;0.00;;;0.00;;
65393;SDS011;52002;49.760;6.512;2022-08-07T12:13:34;0.00;;;0.00;;
65393;SDS011;52002;49.760;6.512;2022-08-07T12:16:10;0.00;;;0.00;;
65393;SDS011;52002;49.760;6.512;2022-08-07T12:18:45;0.00;;;0.00;;
65393;SDS011;52002;49.760;6.512;2022-08-07T12:24:36;0.00;;;0.00;;
65393;SDS011;52002;49.760;6.512;2022-08-07T12:27:50;0.00;;;0.00;;
65393;SDS011;52002;49.760;6.512;2022-08-07T12:30:20;0.00;;;0.00;;
65393;SDS011;52002;49.760;6.512;2022-08-07T12:33:00;0.00;;;0.00;;
65393;SDS011;52002;49.760;6.512;2022-08-07T12:35:30;0.00;;;0.00;;
65393;SDS011;52002;49.760;6.512;2022-08-07T12:37:59;0.00;;;0.00;;
65393;SDS011;52002;49.760;6.512;2022-08-07T12:40:28;0.00;;;0.00;;
65393;SDS011;52002;49.760;6.512;2022-08-07T12:42:59;0.00;;;0.00;;
65393;SDS011;52002;49.760;6.512;2022-08-07T12:45:30;0.00;;;0.00;;
65393;SDS011;52002;49.760;6.512;2022-08-07T12:50:43;0.00;;;0.00;;
65393;SDS011;52002;49.760;6.512;2022-08-07T12:56:08;0.00;;;0.00;;
65393;SDS011;52002;49.760;6.512;2022-08-07T12:58:45;0.00;;;0.00;;
65393;SDS011;52002;49.760;6.512;2022-08-07T13:04:08;0.10;;;0.10;;
65393;SDS011;52002;49.760;6.512;2022-08-07T13:07:02;0.00;;;0.00;;
65393;SDS011;52002;49.760;6.512;2022-08-07T13:10:06;0.00;;;0.00;;
65393;SDS011;52002;49.760;6.512;2022-08-07T13:21:39;0.00;;;0.00;;
65393;SDS011;52002;49.760;6.512;2022-08-07T13:24:33;0.00;;;0.00;;
65393;SDS011;52002;49.760;6.512;2022-08-07T13:30:05;0.00;;;0.00;;
65393;SDS011;52002;49.760;6.512;2022-08-07T13:32:49;0.00;;;0.00;;
65393;SDS011;52002;49.760;6.512;2022-08-07T13:35:40;0.00;;;0.00;;
65393;SDS011;52002;49.760;6.512;2022-08-07T13:38:16;0.00;;;0.00;;
65393;SDS011;52002;49.760;6.512;2022-08-07T13:41:01;0.00;;;0.00;;
65393;SDS011;52002;49.760;6.512;2022-08-07T13:43:53;0.00;;;0.00;;
65393;SDS011;52002;49.760;6.512;2022-08-07T13:46:21;0.00;;;0.00;;
65393;SDS011;52002;49.760;6.512;2022-08-07T13:48:53;0.00;;;0.00;;
65393;SDS011;52002;49.760;6.512;2022-08-07T13:51:23;0.00;;;0.00;;
65393;SDS011;52002;49.760;6.512;2022-08-07T13:53:51;0.00;;;0.00;;
65393;SDS011;52002;49.760;6.512;2022-08-07T13:56:22;0.00;;;0.00;;
65393;SDS011;52002;49.760;6.512;2022-08-07T13:58:50;0.00;;;0.00;;
65393;SDS011;52002;49.760;6.512;2022-08-07T14:01:29;0.00;;;0.00;;
65393;SDS011;52002;49.760;6.512;2022-08-07T14:04:08;0.00;;;0.00;;
65393;SDS011;52002;49.760;6.512;2022-08-07T14:06:46;0.00;;;0.00;;
65393;SDS011;52002;49.760;6.512;2022-08-07T14:09:25;0.10;;;0.10;;
65393;SDS011;52002;49.760;6.512;2022-08-07T14:11:55;0.10;;;0.10;;
65393;SDS011;52002;49.760;6.512;2022-08-07T14:14:29;0.10;;;0.10;;
65393;SDS011;52002;49.760;6.512;2022-08-07T14:17:00;0.30;;;0.30;;
65393;SDS011;52002;49.760;6.512;2022-08-07T14:19:32;0.28;;;0.28;;
65393;SDS011;52002;49.760;6.512;2022-08-07T14:22:05;0.30;;;0.30;;
65393;SDS011;52002;49.760;6.512;2022-08-07T14:27:10;0.70;;;0.70;;
65393;SDS011;52002;49.760;6.512;2022-08-07T14:29:39;0.85;;;0.85;;
65393;SDS011;52002;49.760;6.512;2022-08-07T14:32:09;1.20;;;1.20;;
65393;SDS011;52002;49.760;6.512;2022-08-07T14:34:38;1.50;;;1.50;;
65393;SDS011;52002;49.760;6.512;2022-08-07T14:37:07;1.92;;;1.92;;
65393;SDS011;52002;49.760;6.512;2022-08-07T14:39:36;2.40;;;2.40;;
65393;SDS011;52002;49.760;6.512;2022-08-07T14:42:10;3.15;;;3.05;;
65393;SDS011;52002;49.760;6.512;2022-08-07T14:44:44;3.50;;;3.40;;
65393;SDS011;52002;49.760;6.512;2022-08-07T14:47:12;4.00;;;3.90;;
65393;SDS011;52002;49.760;6.512;2022-08-07T14:49:44;4.58;;;4.47;;
65393;SDS011;52002;49.760;6.512;2022-08-07T14:52:12;4.80;;;4.70;;
65393;SDS011;52002;49.760;6.512;2022-08-07T14:54:39;5.30;;;5.20;;
65393;SDS011;52002;49.760;6.512;2022-08-07T14:57:14;5.50;;;5.40;;
65393;SDS011;52002;49.760;6.512;2022-08-07T14:59:47;6.08;;;5.97;;
65393;SDS011;52002;49.760;6.512;2022-08-07T15:02:18;6.40;;;6.30;;
65393;SDS011;52002;49.760;6.512;2022-08-07T15:04:50;6.75;;;6.62;;
65393;SDS011;52002;49.760;6.512;2022-08-07T15:07:22;6.72;;;6.62;;
65393;SDS011;52002;49.760;6.512;2022-08-07T15:09:48;7.37;;;7.17;;
65393;SDS011;52002;49.760;6.512;2022-08-07T15:12:18;7.20;;;7.00;;
65393;SDS011;52002;49.760;6.512;2022-08-07T15:14:52;7.60;;;7.40;;
65393;SDS011;52002;49.760;6.512;2022-08-07T15:17:27;7.42;;;7.22;;
65393;SDS011;52002;49.760;6.512;2022-08-07T15:19:59;7.45;;;7.25;;
65393;SDS011;52002;49.760;6.512;2022-08-07T15:22:29;7.25;;;7.05;;
65393;SDS011;52002;49.760;6.512;2022-08-07T15:25:15;7.25;;;7.05;;
65393;SDS011;52002;49.760;6.512;2022-08-07T15:27:51;6.90;;;6.70;;
65393;SDS011;52002;49.760;6.512;2022-08-07T15:30:21;6.50;;;6.40;;
65393;SDS011;52002;49.760;6.512;2022-08-07T15:32:49;6.17;;;6.08;;
65393;SDS011;52002;49.760;6.512;2022-08-07T15:35:18;5.47;;;5.37;;
65393;SDS011;52002;49.760;6.512;2022-08-07T15:37:52;5.30;;;5.20;;
65393;SDS011;52002;49.760;6.512;2022-08-07T15:40:21;4.87;;;4.78;;
65393;SDS011;52002;49.760;6.512;2022-08-07T15:45:39;4.33;;;4.22;;
65393;SDS011;52002;49.760;6.512;2022-08-07T15:48:12;4.10;;;4.00;;
65393;SDS011;52002;49.760;6.512;2022-08-07T15:50:45;4.00;;;3.90;;
65393;SDS011;52002;49.760;6.512;2022-08-07T15:53:18;3.70;;;3.60;;
65393;SDS011;52002;49.760;6.512;2022-08-07T15:55:57;3.30;;;3.20;;
65393;SDS011;52002;49.760;6.512;2022-08-07T15:58:51;3.10;;;3.00;;
65393;SDS011;52002;49.760;6.512;2022-08-07T16:01:06;2.75;;;2.75;;
65393;SDS011;52002;49.760;6.512;2022-08-07T16:03:44;2.50;;;2.50;;
65393;SDS011;52002;49.760;6.512;2022-08-07T16:06:13;2.45;;;2.45;;
65393;SDS011;52002;49.760;6.512;2022-08-07T16:08:44;2.30;;;2.30;;
65393;SDS011;52002;49.760;6.512;2022-08-07T16:11:51;2.10;;;2.10;;
65393;SDS011;52002;49.760;6.512;2022-08-07T16:14:35;1.90;;;1.90;;
65393;SDS011;52002;49.760;6.512;2022-08-07T16:23:17;1.40;;;1.40;;
65393;SDS011;52002;49.760;6.512;2022-08-07T16:26:11;1.30;;;1.30;;
65393;SDS011;52002;49.760;6.512;2022-08-07T16:34:37;0.70;;;0.70;;
65393;SDS011;52002;49.760;6.512;2022-08-07T16:52:15;0.00;;;0.00;;
65393;SDS011;52002;49.760;6.512;2022-08-07T17:03:26;0.00;;;0.00;;
65393;SDS011;52002;49.760;6.512;2022-08-07T17:08:36;0.00;;;0.00;;
65393;SDS011;52002;49.760;6.512;2022-08-07T17:11:13;0.00;;;0.00;;
65393;SDS011;52002;49.760;6.512;2022-08-07T17:13:58;0.00;;;0.00;;
65393;SDS011;52002;49.760;6.512;2022-08-07T17:16:25;0.00;;;0.00;;
65393;SDS011;52002;49.760;6.512;2022-08-07T17:21:32;0.00;;;0.00;;
65393;SDS011;52002;49.760;6.512;2022-08-07T17:27:21;0.00;;;0.00;;
65393;SDS011;52002;49.760;6.512;2022-08-07T17:30:27;0.00;;;0.00;;
65393;SDS011;52002;49.760;6.512;2022-08-07T17:33:13;0.00;;;0.00;;
65393;SDS011;52002;49.760;6.512;2022-08-07T17:35:54;0.00;;;0.00;;
65393;SDS011;52002;49.760;6.512;2022-08-07T17:38:48;0.00;;;0.00;;
65393;SDS011;52002;49.760;6.512;2022-08-07T17:41:17;0.00;;;0.00;;
65393;SDS011;52002;49.760;6.512;2022-08-07T17:43:55;0.00;;;0.00;;
65393;SDS011;52002;49.760;6.512;2022-08-07T17:46:41;0.00;;;0.00;;
65393;SDS011;52002;49.760;6.512;2022-08-07T17:49:22;0.00;;;0.00;;
65393;SDS011;52002;49.760;6.512;2022-08-07T17:52:27;0.00;;;0.00;;
65393;SDS011;52002;49.760;6.512;2022-08-07T17:55:08;0.00;;;0.00;;
65393;SDS011;52002;49.760;6.512;2022-08-07T18:00:20;0.00;;;0.00;;
65393;SDS011;52002;49.760;6.512;2022-08-07T18:02:54;0.00;;;0.00;;
65393;SDS011;52002;49.760;6.512;2022-08-07T18:05:30;0.00;;;0.00;;
65393;SDS011;52002;49.760;6.512;2022-08-07T18:08:12;0.00;;;0.00;;
65393;SDS011;52002;49.760;6.512;2022-08-07T18:10:44;0.00;;;0.00;;
65393;SDS011;52002;49.760;6.512;2022-08-07T18:13:44;0.00;;;0.00;;
65393;SDS011;52002;49.760;6.512;2022-08-07T18:16:28;0.10;;;0.10;;
65393;SDS011;52002;49.760;6.512;2022-08-07T18:19:33;0.00;;;0.00;;
65393;SDS011;52002;49.760;6.512;2022-08-07T18:21:57;0.00;;;0.00;;
65393;SDS011;52002;49.760;6.512;2022-08-07T18:24:40;0.00;;;0.00;;
65393;SDS011;52002;49.760;6.512;2022-08-07T18:30:33;0.00;;;0.00;;
65393;SDS011;52002;49.760;6.512;2022-08-07T18:36:14;0.00;;;0.00;;
65393;SDS011;52002;49.760;6.512;2022-08-07T19:08:06;0.00;;;0.00;;
65393;SDS011;52002;49.760;6.512;2022-08-07T19:10:44;0.00;;;0.00;;
65393;SDS011;52002;49.760;6.512;2022-08-07T19:16:37;0.00;;;0.00;;
65393;SDS011;52002;49.760;6.512;2022-08-07T19:22:24;0.00;;;0.00;;
65393;SDS011;52002;49.760;6.512;2022-08-07T19:25:03;0.00;;;0.00;;
65393;SDS011;52002;49.760;6.512;2022-08-07T19:27:32;0.00;;;0.00;;
65393;SDS011;52002;49.760;6.512;2022-08-07T19:30:00;0.00;;;0.00;;
65393;SDS011;52002;49.760;6.512;2022-08-07T19:32:31;0.00;;;0.00;;
65393;SDS011;52002;49.760;6.512;2022-08-07T19:35:00;0.00;;;0.00;;
65393;SDS011;52002;49.760;6.512;2022-08-07T19:37:30;0.00;;;0.00;;